ěÝzenÝ letovÚho provozu ╚eskÚ republiky
Letiste: LKCR Aktualizace: 27.02.2024 12:30:53  UTC
 METAR LKCR 27.02. 12:30 ...
METAR LKCR 271230Z AUTO 31004KT 280V340 4400 BR OVC003 05/04 Q1012=